Rolling Prairie, Indiana
Current Conditions -  °F | °C
As of 12:35 PM on Saturday 25 Oct 2014 (Local Time) from KPPO Reporting Station
Clear Clear  
Wind Chill: 67°   Ceiling: Unl
Heat Index: 67°   Visibility: 10mi
Dew Point: 46°   Wind: 12mph
Humidity: 46%   Direction: 300°WNW
Pressure: 29.94"   Gusts: 21mph
Location:  41.67°N, 86.62°W
Report Text: KPPO 251735Z AUTO 30010G18KT 10SM CLR 20/08 A2994 RMK AO2 T01970079
Loading
Personal Weather Stations






























Interactive Weather Map
Tropical Storm Tracking
New forecast layout! Learn more

10-Day Weather Forecast

Advertisements
Track Severe Weather on mobile